Time;durP1;ratioP1;P1;durP2;ratioP2;P2;SDS_P1;SDS_P2;PMS_P1;PMS_P2;Temp;Humidity;BMP_temperature;BMP_pressure;BME280_temperature;BME280_humidity;BME280_pressure;Samples;Min_cycle;Max_cycle;Signal;HPM_P1;HPM_P2
2023/03/21 00:01:23;;;;;;;13.90;10.65;;;11.00;99.90;;;;;;5060469;28;20213;-43
2023/03/21 00:03:50;;;;;;;17.13;11.60;;;11.00;99.90;;;;;;5061808;28;20096;-44
2023/03/21 00:06:18;;;;;;;16.88;11.45;;;11.00;99.90;;;;;;5060314;28;20024;-42
2023/03/21 00:08:44;;;;;;;16.20;12.20;;;11.00;99.90;;;;;;5060643;28;20024;-43
2023/03/21 00:11:10;;;;;;;15.55;12.25;;;11.00;99.90;;;;;;5060268;28;20553;-44
2023/03/21 00:13:37;;;;;;;16.33;12.02;;;11.00;99.90;;;;;;5060724;28;20035;-43
2023/03/21 00:16:15;;;;;;;13.45;10.05;;;11.10;99.90;;;;;;5060841;28;20029;-43
2023/03/21 00:19:02;;;;;;;19.15;13.55;;;11.00;99.90;;;;;;5061283;28;20029;-42
2023/03/21 00:21:31;;;;;;;19.25;15.50;;;11.00;99.90;;;;;;5060398;28;20056;-43
2023/03/21 00:23:57;;;;;;;20.25;15.05;;;11.00;99.90;;;;;;5060637;28;20063;-44
2023/03/21 00:26:24;;;;;;;15.07;13.13;;;11.00;99.90;;;;;;5061013;28;20484;-42
2023/03/21 00:28:50;;;;;;;19.05;15.10;;;11.00;99.90;;;;;;5060700;28;20721;-43
2023/03/21 00:31:16;;;;;;;19.00;16.08;;;11.00;99.90;;;;;;5060249;28;20037;-43
2023/03/21 00:33:44;;;;;;;17.33;14.52;;;10.90;99.90;;;;;;5060991;28;20064;-43
2023/03/21 00:36:11;;;;;;;16.33;13.45;;;11.00;99.90;;;;;;5059823;28;20106;-43
2023/03/21 00:38:37;;;;;;;17.52;14.18;;;10.90;99.90;;;;;;5060225;28;20115;-44
2023/03/21 00:41:13;;;;;;;19.38;14.55;;;11.00;99.90;;;;;;5060018;28;20024;-44
2023/03/21 00:43:39;;;;;;;17.65;14.18;;;10.90;99.90;;;;;;5059972;28;20078;-43
2023/03/21 00:46:05;;;;;;;16.52;13.82;;;11.00;99.90;;;;;;5059135;28;20024;-43
2023/03/21 00:48:33;;;;;;;20.73;14.27;;;11.00;99.90;;;;;;5060536;28;20095;-43
2023/03/21 00:50:59;;;;;;;17.75;13.90;;;10.90;99.90;;;;;;5060046;28;20029;-43
2023/03/21 00:53:26;;;;;;;17.30;14.57;;;10.90;99.90;;;;;;5060397;28;20074;-43
2023/03/21 00:55:51;;;;;;;16.40;13.23;;;11.00;99.90;;;;;;5060734;28;20028;-43
2023/03/21 00:58:17;;;;;;;18.27;13.00;;;11.00;99.90;;;;;;5059686;28;20044;-43
2023/03/21 01:00:46;;;;;;;17.80;13.65;;;10.90;99.90;;;;;;5059462;28;20012;-41
2023/03/21 01:03:14;;;;;;;17.55;13.82;;;10.90;99.90;;;;;;5059815;28;20040;-42
2023/03/21 01:08:28;;;;;;;14.82;12.88;;;11.00;99.90;;;;;;5060515;28;20121;-42
2023/03/21 01:10:55;;;;;;;15.40;12.27;;;10.90;99.90;;;;;;5059843;28;20111;-42
2023/03/21 01:13:26;;;;;;;18.50;13.10;;;10.90;99.90;;;;;;5058890;28;20790;-43
2023/03/21 01:15:57;;;;;;;17.20;13.63;;;10.90;99.90;;;;;;5059623;28;20624;-43
2023/03/21 01:18:26;;;;;;;16.45;14.07;;;10.90;99.90;;;;;;5058748;28;20291;-43
2023/03/21 01:20:55;;;;;;;19.85;14.18;;;10.90;99.90;;;;;;5059608;28;20020;-43
2023/03/21 01:23:22;;;;;;;14.15;12.60;;;10.90;99.90;;;;;;5059643;28;20030;-43
2023/03/21 01:25:55;;;;;;;16.17;12.95;;;10.90;99.90;;;;;;5059557;28;20496;-43
2023/03/21 01:28:21;;;;;;;15.88;13.50;;;10.90;99.90;;;;;;5049042;28;20404;-43
2023/03/21 01:30:49;;;;;;;16.60;13.82;;;10.80;99.90;;;;;;5060216;28;20119;-43
2023/03/21 01:33:15;;;;;;;18.33;14.13;;;10.80;99.90;;;;;;5059084;28;20039;-42
2023/03/21 01:35:41;;;;;;;19.23;15.25;;;10.80;99.90;;;;;;5059850;28;20487;-43
2023/03/21 01:38:08;;;;;;;16.77;13.60;;;10.80;99.90;;;;;;5059158;28;20124;-42
2023/03/21 01:40:37;;;;;;;16.77;14.05;;;10.80;99.90;;;;;;5059534;28;20056;-42
2023/03/21 01:43:03;;;;;;;17.77;13.20;;;10.80;99.90;;;;;;5059505;28;20056;-43
2023/03/21 01:45:57;;;;;;;16.48;13.63;;;10.80;99.90;;;;;;5059005;28;20115;-43
2023/03/21 01:48:23;;;;;;;15.48;12.95;;;10.80;99.90;;;;;;5058312;28;20052;-44
2023/03/21 01:50:54;;;;;;;18.65;13.13;;;10.80;99.90;;;;;;5059318;28;20735;-43
2023/03/21 01:53:22;;;;;;;15.88;13.40;;;10.80;99.90;;;;;;5058046;28;20083;-44
2023/03/21 01:55:48;;;;;;;16.10;13.77;;;10.80;99.90;;;;;;5059258;28;20498;-42
2023/03/21 01:58:17;;;;;;;15.63;11.70;;;10.80;99.90;;;;;;5058814;28;20041;-42
2023/03/21 02:00:47;;;;;;;14.48;12.48;;;10.80;99.90;;;;;;5039179;28;20057;-42
2023/03/21 02:03:16;;;;;;;16.45;13.02;;;10.80;99.90;;;;;;5053481;28;20040;-43
2023/03/21 02:05:47;;;;;;;15.25;12.93;;;10.80;99.90;;;;;;5059430;28;20094;-43
2023/03/21 02:08:13;;;;;;;15.82;12.52;;;10.80;99.90;;;;;;5057880;28;20157;-43
2023/03/21 02:10:41;;;;;;;15.20;12.02;;;10.80;99.90;;;;;;5059167;28;20754;-43
2023/03/21 02:13:08;;;;;;;15.60;12.50;;;10.80;99.90;;;;;;5059610;28;20048;-43
2023/03/21 02:15:44;;;;;;;12.57;10.95;;;10.80;99.90;;;;;;5062549;28;20025;-43
2023/03/21 02:18:16;;;;;;;12.90;11.50;;;10.80;99.90;;;;;;5063083;28;20020;-43
2023/03/21 02:21:10;;;;;;;14.55;10.73;;;10.80;99.90;;;;;;5063040;28;20060;-43
2023/03/21 02:24:06;;;;;;;13.90;10.82;;;10.80;99.90;;;;;;5063036;28;20055;-44
2023/03/21 02:27:17;;;;;;;14.65;11.63;;;10.80;99.90;;;;;;5064136;28;20035;-43
2023/03/21 02:30:10;;;;;;;14.70;11.02;;;10.80;99.90;;;;;;5058516;28;20033;-43
2023/03/21 02:32:55;;;;;;;13.60;12.20;;;10.80;99.90;;;;;;5063743;28;20037;-43
2023/03/21 02:35:57;;;;;;;14.88;12.35;;;10.80;99.90;;;;;;5060129;28;20161;-43
2023/03/21 02:38:39;;;;;;;16.00;13.02;;;10.80;99.90;;;;;;5062661;28;20123;-43
2023/03/21 02:41:20;;;;;;;16.77;11.63;;;10.70;99.90;;;;;;5063094;28;20037;-43
2023/03/21 02:43:49;;;;;;;13.73;12.13;;;10.80;99.90;;;;;;5062437;28;20103;-43
2023/03/21 02:46:17;;;;;;;13.00;11.57;;;10.80;99.90;;;;;;5061977;28;20064;-43
2023/03/21 02:48:55;;;;;;;15.27;12.85;;;10.80;99.90;;;;;;5062100;28;20554;-44
2023/03/21 02:51:23;;;;;;;15.77;12.93;;;10.80;99.90;;;;;;5061736;28;20261;-44
2023/03/21 02:53:56;;;;;;;14.90;13.02;;;10.80;99.90;;;;;;5062382;28;20024;-43
2023/03/21 02:56:24;;;;;;;12.98;11.43;;;10.80;99.90;;;;;;5061813;28;20070;-43
2023/03/21 02:58:51;;;;;;;17.88;13.13;;;10.80;99.90;;;;;;5062046;28;20071;-43
2023/03/21 03:01:16;;;;;;;14.98;12.18;;;10.80;99.90;;;;;;5061900;28;20036;-43
2023/03/21 03:03:42;;;;;;;14.05;12.15;;;10.80;99.90;;;;;;5062003;28;20380;-44
2023/03/21 03:06:27;;;;;;;13.65;12.00;;;10.80;99.90;;;;;;5061824;28;20634;-43
2023/03/21 03:09:11;;;;;;;16.80;13.20;;;10.80;99.90;;;;;;5062358;28;20067;-43
2023/03/21 03:11:40;;;;;;;18.63;14.82;;;10.80;99.90;;;;;;5061342;28;20133;-43
2023/03/21 03:14:30;;;;;;;15.90;14.02;;;10.80;99.90;;;;;;5061164;28;20032;-43
2023/03/21 03:17:01;;;;;;;15.80;12.73;;;10.80;99.90;;;;;;5051412;28;20089;-43
2023/03/21 03:19:33;;;;;;;18.98;13.88;;;10.70;99.90;;;;;;5061207;28;20071;-43
2023/03/21 03:22:05;;;;;;;14.57;11.18;;;10.70;99.90;;;;;;5062317;28;20649;-43
2023/03/21 03:24:35;;;;;;;19.63;14.63;;;10.70;99.90;;;;;;5060902;28;20495;-43
2023/03/21 03:27:09;;;;;;;15.00;13.38;;;10.80;99.90;;;;;;5060918;28;20033;-43
2023/03/21 03:29:39;;;;;;;16.77;13.23;;;10.70;99.90;;;;;;5062562;28;20055;-42
2023/03/21 03:32:16;;;;;;;17.33;12.88;;;10.70;99.90;;;;;;5061163;28;20117;-42
2023/03/21 03:34:55;;;;;;;13.80;11.90;;;10.70;99.90;;;;;;5062185;28;20825;-42
2023/03/21 03:37:25;;;;;;;18.63;13.68;;;10.70;99.90;;;;;;5059803;28;20020;-42
2023/03/21 03:40:24;;;;;;;15.75;12.95;;;10.70;99.90;;;;;;5061872;28;20808;-43
2023/03/21 03:42:55;;;;;;;17.38;13.25;;;10.70;99.90;;;;;;5043392;28;20500;-43
2023/03/21 03:45:29;;;;;;;17.63;12.77;;;10.70;99.90;;;;;;5060674;28;20035;-44
2023/03/21 03:48:14;;;;;;;15.27;12.82;;;10.70;99.90;;;;;;5060692;28;20801;-43
2023/03/21 03:51:05;;;;;;;16.88;13.05;;;10.70;99.90;;;;;;5061236;28;20058;-43
2023/03/21 03:53:45;;;;;;;16.13;12.23;;;10.70;99.90;;;;;;5053395;28;20154;-43
2023/03/21 03:56:12;;;;;;;16.13;12.35;;;10.70;99.90;;;;;;5061407;28;20119;-42
2023/03/21 03:58:39;;;;;;;20.55;11.75;;;10.70;99.90;;;;;;5061832;28;20360;-43
2023/03/21 04:01:08;;;;;;;15.50;10.50;;;10.60;99.90;;;;;;5060087;28;20013;-42
2023/03/21 04:03:38;;;;;;;14.55;10.05;;;10.70;99.90;;;;;;5061770;28;20420;-43
2023/03/21 04:06:03;;;;;;;13.10;10.18;;;10.70;99.90;;;;;;5060847;28;20052;-43
2023/03/21 04:08:29;;;;;;;17.00;10.32;;;10.70;99.90;;;;;;5060405;28;20132;-43
2023/03/21 04:10:55;;;;;;;9.45;6.93;;;10.70;99.90;;;;;;5061699;28;20029;-43
2023/03/21 04:13:21;;;;;;;13.23;9.50;;;10.70;99.90;;;;;;5060045;28;20475;-42
2023/03/21 04:15:46;;;;;;;15.13;9.57;;;10.70;99.90;;;;;;5060939;28;20031;-42
2023/03/21 04:18:12;;;;;;;11.95;9.75;;;10.70;99.90;;;;;;5060163;28;20032;-42
2023/03/21 04:20:37;;;;;;;12.35;8.65;;;10.70;99.90;;;;;;5060543;28;20735;-42
2023/03/21 04:23:04;;;;;;;12.05;8.48;;;10.70;99.90;;;;;;5060251;28;20619;-44
2023/03/21 04:25:33;;;;;;;12.65;9.10;;;10.70;99.90;;;;;;5041193;28;20727;-44
2023/03/21 04:27:59;;;;;;;13.40;9.02;;;10.70;99.90;;;;;;5054780;28;20433;-44
2023/03/21 04:30:28;;;;;;;12.30;7.88;;;10.70;99.90;;;;;;5060407;28;20061;-44
2023/03/21 04:32:55;;;;;;;12.88;8.07;;;10.70;99.90;;;;;;5060544;28;20151;-44
2023/03/21 04:35:22;;;;;;;14.27;8.25;;;10.70;99.90;;;;;;5059133;28;20413;-43
2023/03/21 04:37:47;;;;;;;12.70;8.82;;;10.80;99.90;;;;;;5059555;28;20434;-44
2023/03/21 04:40:16;;;;;;;13.43;8.20;;;10.70;99.90;;;;;;5060517;28;20021;-44
2023/03/21 04:42:42;;;;;;;11.25;8.35;;;10.80;99.90;;;;;;5059951;28;20024;-44
2023/03/21 04:45:08;;;;;;;11.32;8.15;;;10.80;99.90;;;;;;5060239;28;20110;-44
2023/03/21 04:47:34;;;;;;;11.27;8.15;;;10.80;99.90;;;;;;5061095;28;20024;-43
2023/03/21 04:50:00;;;;;;;11.20;8.10;;;10.80;99.90;;;;;;5059565;28;20047;-43
2023/03/21 04:52:25;;;;;;;11.05;7.90;;;10.80;99.90;;;;;;5059450;28;20055;-43
2023/03/21 04:54:51;;;;;;;11.93;8.25;;;10.80;99.90;;;;;;5060361;28;20029;-43
2023/03/21 04:57:17;;;;;;;12.73;8.52;;;10.80;99.90;;;;;;5059724;28;20025;-43
2023/03/21 04:59:43;;;;;;;11.55;7.10;;;10.80;99.90;;;;;;5059543;28;20604;-43
2023/03/21 05:02:08;;;;;;;10.07;7.82;;;10.80;99.90;;;;;;5059444;28;20416;-43
2023/03/21 05:04:34;;;;;;;8.98;7.00;;;10.80;99.90;;;;;;5059489;28;20032;-43
2023/03/21 05:07:00;;;;;;;12.77;7.63;;;10.80;99.90;;;;;;5060166;28;20025;-43
2023/03/21 05:09:26;;;;;;;8.00;6.53;;;10.80;99.90;;;;;;5059532;28;20036;-43
2023/03/21 05:11:52;;;;;;;10.80;7.57;;;10.80;99.90;;;;;;5059646;28;20508;-43
2023/03/21 05:14:23;;;;;;;11.48;8.20;;;10.80;99.90;;;;;;5059335;28;20024;-43
2023/03/21 05:16:52;;;;;;;11.98;7.68;;;10.70;99.90;;;;;;5059584;28;20040;-43
2023/03/21 05:19:21;;;;;;;11.68;8.35;;;10.70;99.90;;;;;;5059142;28;20674;-42
2023/03/21 05:21:48;;;;;;;11.32;8.00;;;10.70;99.90;;;;;;5059933;28;20028;-42
2023/03/21 05:24:16;;;;;;;14.27;7.95;;;10.80;99.90;;;;;;5059074;28;20376;-43
2023/03/21 05:26:43;;;;;;;10.07;7.72;;;10.80;99.90;;;;;;5059368;28;20031;-42
2023/03/21 05:29:10;;;;;;;9.27;6.85;;;10.80;99.90;;;;;;5059327;28;20063;-42
2023/03/21 05:31:35;;;;;;;11.15;7.93;;;10.80;99.90;;;;;;5059714;28;20039;-42
2023/03/21 05:34:01;;;;;;;13.32;7.82;;;10.80;99.90;;;;;;5059755;28;20029;-42
2023/03/21 05:36:28;;;;;;;13.27;8.18;;;10.70;99.90;;;;;;5058603;28;20085;-43
2023/03/21 05:38:53;;;;;;;12.57;8.18;;;10.70;99.90;;;;;;5059261;28;20040;-43
2023/03/21 05:41:20;;;;;;;13.32;8.18;;;10.70;99.90;;;;;;5059021;28;20052;-43
2023/03/21 05:43:45;;;;;;;12.65;7.60;;;10.60;99.90;;;;;;5059990;28;20034;-42
2023/03/21 05:46:11;;;;;;;11.98;7.88;;;10.60;99.90;;;;;;5059215;28;20473;-44
2023/03/21 05:48:39;;;;;;;11.88;6.95;;;10.60;99.90;;;;;;5059856;28;20020;-43
2023/03/21 05:51:05;;;;;;;11.45;7.60;;;10.60;99.90;;;;;;5058596;28;20043;-43
2023/03/21 05:53:34;;;;;;;14.05;7.63;;;10.70;99.90;;;;;;5060008;28;20029;-43
2023/03/21 05:55:59;;;;;;;9.80;6.97;;;10.60;99.90;;;;;;5059354;28;20067;-42
2023/03/21 05:58:25;;;;;;;11.13;7.20;;;10.60;99.90;;;;;;5059214;28;20707;-43
2023/03/21 06:00:50;;;;;;;11.20;7.63;;;10.60;99.90;;;;;;5059143;28;20121;-43
2023/03/21 06:03:16;;;;;;;13.48;8.23;;;10.70;99.90;;;;;;5058505;28;20133;-42
2023/03/21 06:05:41;;;;;;;10.32;7.50;;;10.70;99.90;;;;;;5058642;28;20027;-43
2023/03/21 06:08:12;;;;;;;11.88;7.32;;;10.70;99.90;;;;;;5058674;28;20032;-43
2023/03/21 06:10:38;;;;;;;11.07;7.10;;;10.70;99.90;;;;;;5058945;28;20170;-44
2023/03/21 06:13:04;;;;;;;9.93;7.00;;;10.70;99.90;;;;;;5058653;28;20437;-40
2023/03/21 06:15:29;;;;;;;10.20;7.47;;;10.70;99.90;;;;;;5059736;28;20408;-43
2023/03/21 06:17:58;;;;;;;12.30;7.10;;;10.70;99.90;;;;;;5059949;28;20450;-43
2023/03/21 06:20:24;;;;;;;11.20;7.22;;;10.70;99.90;;;;;;5058606;28;20020;-43
2023/03/21 06:22:49;;;;;;;10.65;7.10;;;10.80;99.90;;;;;;5058816;28;20105;-43
2023/03/21 06:25:15;;;;;;;9.93;7.10;;;10.80;99.90;;;;;;5058218;28;20067;-42
2023/03/21 06:27:41;;;;;;;12.43;6.95;;;10.80;99.90;;;;;;5058368;28;20059;-42
2023/03/21 06:30:07;;;;;;;12.57;8.10;;;10.80;99.90;;;;;;5058604;28;20154;-42
2023/03/21 06:32:33;;;;;;;8.77;6.55;;;10.80;99.90;;;;;;5058818;28;20037;-43
2023/03/21 06:34:58;;;;;;;10.18;6.95;;;10.90;99.90;;;;;;5058874;28;20035;-44
2023/03/21 06:37:25;;;;;;;10.77;6.70;;;10.80;99.90;;;;;;5059496;28;20028;-43
2023/03/21 06:39:51;;;;;;;12.65;8.13;;;10.80;99.90;;;;;;5059047;28;20035;-43
2023/03/21 06:42:17;;;;;;;13.57;8.57;;;10.80;99.90;;;;;;5057963;28;20028;-44
2023/03/21 06:44:45;;;;;;;12.40;7.20;;;10.80;99.90;;;;;;5056350;28;20674;-43
2023/03/21 06:47:10;;;;;;;13.55;8.18;;;10.90;99.90;;;;;;5056133;28;20139;-43
2023/03/21 06:49:36;;;;;;;12.82;7.85;;;10.90;99.90;;;;;;5056013;28;20462;-43
2023/03/21 06:52:02;;;;;;;15.30;7.03;;;10.90;99.90;;;;;;5057358;28;20139;-42
2023/03/21 06:54:27;;;;;;;10.15;6.63;;;10.90;99.90;;;;;;5057033;28;20055;-43
2023/03/21 06:56:53;;;;;;;12.88;6.55;;;10.90;99.90;;;;;;5056175;28;20060;-43
2023/03/21 06:59:20;;;;;;;9.63;6.05;;;11.00;99.90;;;;;;5052766;28;20025;-43
2023/03/21 07:01:46;;;;;;;8.90;6.22;;;11.00;99.90;;;;;;5061865;28;20033;-43
2023/03/21 07:04:11;;;;;;;8.40;6.35;;;11.00;99.90;;;;;;5060488;28;20078;-43
2023/03/21 07:06:37;;;;;;;12.77;7.05;;;11.10;99.90;;;;;;5061867;28;20024;-42
2023/03/21 07:09:04;;;;;;;11.77;7.32;;;11.10;99.90;;;;;;5061164;28;20031;-43
2023/03/21 07:11:30;;;;;;;11.32;6.82;;;11.10;99.90;;;;;;5061482;28;20043;-43
2023/03/21 07:13:57;;;;;;;10.27;6.35;;;11.10;99.90;;;;;;5061055;28;20024;-43
2023/03/21 07:16:23;;;;;;;9.85;6.70;;;11.20;99.90;;;;;;5060268;28;20527;-43
2023/03/21 07:18:49;;;;;;;12.98;6.65;;;11.20;99.90;;;;;;5060834;28;20043;-42
2023/03/21 07:21:16;;;;;;;10.25;6.78;;;11.20;99.90;;;;;;5060985;28;20024;-42
2023/03/21 07:23:45;;;;;;;10.68;6.88;;;11.30;99.90;;;;;;5059766;28;20569;-43
2023/03/21 07:26:11;;;;;;;13.18;6.63;;;11.30;99.90;;;;;;5060753;28;20040;-43
2023/03/21 07:28:37;;;;;;;9.40;6.70;;;11.40;99.90;;;;;;5060488;28;20073;-43
2023/03/21 07:31:05;;;;;;;10.82;6.10;;;11.40;99.90;;;;;;5060236;28;20039;-43
2023/03/21 07:33:32;;;;;;;8.63;5.63;;;11.50;99.90;;;;;;5061365;28;20036;-44
2023/03/21 07:35:58;;;;;;;10.95;6.72;;;11.50;99.90;;;;;;5061137;28;20032;-42
2023/03/21 07:38:24;;;;;;;10.27;6.15;;;11.50;99.90;;;;;;5060432;28;20804;-43
2023/03/21 07:40:50;;;;;;;9.20;6.47;;;11.50;99.90;;;;;;5060630;28;20056;-43
2023/03/21 07:43:16;;;;;;;9.70;5.93;;;11.50;99.90;;;;;;5060888;28;20021;-43
2023/03/21 07:45:43;;;;;;;8.93;6.00;;;11.50;99.90;;;;;;5060606;28;20063;-42
2023/03/21 07:48:11;;;;;;;9.05;6.47;;;11.50;99.90;;;;;;5060801;28;20074;-43
2023/03/21 07:50:37;;;;;;;8.38;5.70;;;11.50;99.90;;;;;;5058150;28;20048;-43
2023/03/21 07:53:03;;;;;;;8.15;5.55;;;11.50;99.90;;;;;;5059386;28;20048;-43
2023/03/21 07:55:29;;;;;;;10.05;5.40;;;11.50;99.90;;;;;;5060821;28;20102;-44
2023/03/21 07:57:54;;;;;;;14.88;6.57;;;11.50;99.90;;;;;;5061027;28;20048;-43
2023/03/21 08:00:23;;;;;;;12.52;5.60;;;11.40;99.90;;;;;;5059770;28;20017;-43
2023/03/21 08:02:53;;;;;;;6.88;4.50;;;11.40;99.90;;;;;;5060820;28;20035;-43
2023/03/21 08:05:23;;;;;;;8.32;5.82;;;11.40;99.90;;;;;;5059813;28;20024;-43
2023/03/21 08:07:49;;;;;;;7.78;5.40;;;11.40;99.90;;;;;;5060250;28;20059;-43
2023/03/21 08:10:15;;;;;;;8.20;5.32;;;11.40;99.90;;;;;;5060109;28;20761;-42
2023/03/21 08:12:41;;;;;;;12.02;6.30;;;11.30;99.90;;;;;;5060432;28;20067;-43
2023/03/21 08:15:07;;;;;;;10.88;6.10;;;11.30;99.90;;;;;;5059871;28;20789;-44
2023/03/21 08:17:35;;;;;;;9.95;6.05;;;11.30;99.90;;;;;;5060054;28;20032;-43
2023/03/21 08:20:00;;;;;;;11.32;5.55;;;11.40;99.90;;;;;;5059296;28;20581;-43
2023/03/21 08:22:26;;;;;;;11.32;6.10;;;11.40;99.90;;;;;;5060017;28;20036;-43
2023/03/21 08:24:51;;;;;;;10.52;6.03;;;11.40;99.90;;;;;;5059902;28;20117;-43
2023/03/21 08:27:19;;;;;;;11.70;6.55;;;11.40;99.90;;;;;;5059149;28;20066;-43
2023/03/21 08:29:47;;;;;;;11.18;6.97;;;11.40;99.90;;;;;;5059707;28;20063;-44
2023/03/21 08:32:13;;;;;;;9.00;5.93;;;11.50;99.90;;;;;;5059676;28;20141;-42
2023/03/21 08:34:38;;;;;;;12.93;6.93;;;11.50;99.90;;;;;;5059928;28;20543;-43
2023/03/21 08:37:04;;;;;;;10.75;7.10;;;11.50;99.90;;;;;;5059205;28;20030;-42
2023/03/21 08:39:32;;;;;;;9.65;6.05;;;11.60;99.90;;;;;;5060703;28;20020;-43
2023/03/21 08:42:00;;;;;;;11.65;6.93;;;11.60;99.90;;;;;;5059032;28;20036;-43
2023/03/21 08:44:26;;;;;;;9.10;5.60;;;11.60;99.90;;;;;;5059827;28;20495;-42
2023/03/21 08:46:52;;;;;;;10.48;5.72;;;11.70;99.90;;;;;;5059249;28;20028;-43
2023/03/21 08:49:18;;;;;;;12.13;6.53;;;11.70;99.90;;;;;;5058698;28;20023;-43
2023/03/21 08:51:44;;;;;;;7.68;4.80;;;11.80;99.90;;;;;;5059882;28;20724;-43
2023/03/21 08:54:20;;;;;;;12.63;6.30;;;11.80;99.90;;;;;;5058680;28;20121;-44
2023/03/21 08:56:46;;;;;;;12.15;7.00;;;11.80;99.90;;;;;;5058930;28;20089;-44
2023/03/21 08:59:14;;;;;;;15.77;7.85;;;11.80;99.90;;;;;;5059492;28;20500;-44
2023/03/21 09:01:40;;;;;;;9.55;6.00;;;11.90;99.90;;;;;;5059134;28;20023;-44
2023/03/21 09:04:09;;;;;;;11.38;6.85;;;11.90;99.90;;;;;;5058752;28;20499;-44
2023/03/21 09:06:36;;;;;;;8.25;5.10;;;12.00;99.90;;;;;;5059164;28;20540;-44
2023/03/21 09:09:08;;;;;;;10.88;5.78;;;12.00;99.90;;;;;;5059436;28;20699;-43
2023/03/21 09:11:34;;;;;;;9.52;5.90;;;12.00;99.90;;;;;;5060344;28;20036;-43
2023/03/21 09:14:00;;;;;;;9.77;5.80;;;12.10;99.90;;;;;;5059509;28;20033;-43
2023/03/21 09:16:26;;;;;;;9.38;5.20;;;12.10;99.90;;;;;;5058649;28;20120;-43
2023/03/21 09:18:54;;;;;;;10.25;5.30;;;12.20;99.90;;;;;;5058824;28;20032;-44
2023/03/21 09:21:21;;;;;;;7.82;4.95;;;12.30;99.90;;;;;;5058088;28;20644;-44
2023/03/21 09:23:51;;;;;;;8.15;5.82;;;12.30;99.90;;;;;;5058497;28;20024;-43
2023/03/21 09:26:18;;;;;;;11.32;5.70;;;12.30;99.90;;;;;;5058577;28;20056;-43
2023/03/21 09:28:45;;;;;;;8.05;5.55;;;12.40;99.90;;;;;;5058073;28;20020;-43
2023/03/21 09:31:11;;;;;;;8.73;5.90;;;12.40;99.90;;;;;;5056338;28;20025;-44
2023/03/21 09:33:38;;;;;;;7.60;5.72;;;12.50;99.90;;;;;;5059282;28;20058;-44
2023/03/21 09:36:08;;;;;;;9.63;5.43;;;12.50;99.90;;;;;;5058377;28;20029;-43
2023/03/21 09:38:35;;;;;;;9.13;6.00;;;12.50;99.90;;;;;;5058157;28;20032;-42
2023/03/21 09:41:26;;;;;;;8.05;5.57;;;12.50;99.90;;;;;;5055164;28;20032;-43
2023/03/21 09:44:16;;;;;;;10.57;6.05;;;12.60;99.90;;;;;;5059077;28;20047;-43
2023/03/21 09:46:57;;;;;;;13.75;6.85;;;12.60;99.90;;;;;;5052756;28;20821;-44
2023/03/21 09:49:30;;;;;;;9.88;5.55;;;12.60;99.90;;;;;;5058770;28;20422;-43
2023/03/21 09:51:58;;;;;;;8.65;5.45;;;12.60;99.90;;;;;;5059128;28;20122;-44
2023/03/21 09:54:36;;;;;;;10.35;5.80;;;12.50;99.90;;;;;;5058208;28;20027;-44
2023/03/21 09:57:22;;;;;;;11.48;6.38;;;12.50;99.90;;;;;;5058313;28;20033;-44
2023/03/21 09:59:52;;;;;;;8.02;5.80;;;12.50;99.90;;;;;;5057405;28;20035;-43
2023/03/21 10:02:45;;;;;;;9.70;6.25;;;12.50;99.90;;;;;;5058444;28;20021;-43
2023/03/21 10:05:33;;;;;;;8.45;5.57;;;12.50;99.90;;;;;;5056114;28;20036;-43
2023/03/21 10:08:07;;;;;;;8.52;5.10;;;12.50;99.90;;;;;;5058955;28;20104;-43
2023/03/21 10:10:51;;;;;;;6.82;4.65;;;12.60;99.90;;;;;;5060208;28;20058;-43
2023/03/21 10:13:24;;;;;;;13.23;7.03;;;12.60;99.90;;;;;;5058238;28;20032;-43
2023/03/21 10:15:54;;;;;;;11.20;5.25;;;12.70;99.90;;;;;;5059701;28;20024;-43
2023/03/21 10:18:23;;;;;;;9.02;5.65;;;12.80;99.90;;;;;;5057991;28;20029;-43
2023/03/21 10:20:50;;;;;;;8.13;5.22;;;12.80;99.90;;;;;;5058745;28;20051;-43
2023/03/21 10:23:19;;;;;;;10.70;5.75;;;12.90;99.90;;;;;;5058159;28;20078;-44
2023/03/21 10:25:50;;;;;;;7.53;4.95;;;13.00;99.90;;;;;;5059501;28;20059;-43
2023/03/21 10:28:20;;;;;;;8.90;5.00;;;13.10;99.90;;;;;;5057818;28;20032;-43
2023/03/21 10:30:48;;;;;;;8.18;5.30;;;13.10;99.90;;;;;;5058970;28;20037;-43
2023/03/21 10:33:19;;;;;;;8.90;4.60;;;13.30;99.90;;;;;;5057781;28;20101;-43
2023/03/21 10:35:51;;;;;;;6.00;4.43;;;13.30;99.90;;;;;;5062190;28;20017;-43
2023/03/21 10:38:20;;;;;;;7.85;4.35;;;13.40;99.90;;;;;;5061701;28;20028;-43
2023/03/21 10:40:49;;;;;;;7.53;5.25;;;13.50;99.90;;;;;;5062475;28;20055;-43
2023/03/21 10:43:29;;;;;;;8.05;5.07;;;13.40;99.90;;;;;;5061505;28;20024;-43
2023/03/21 10:46:04;;;;;;;8.50;4.60;;;13.40;99.90;;;;;;5062229;28;20762;-44
2023/03/21 10:48:35;;;;;;;6.40;4.93;;;13.50;99.90;;;;;;5061909;28;20378;-43
2023/03/21 10:51:00;;;;;;;7.20;4.47;;;13.50;99.90;;;;;;5061890;28;20024;-44
2023/03/21 10:53:35;;;;;;;9.13;5.10;;;13.50;99.90;;;;;;5061138;28;20697;-43
2023/03/21 10:56:03;;;;;;;8.80;5.60;;;13.60;99.90;;;;;;5061144;28;20032;-43
2023/03/21 10:58:34;;;;;;;7.43;4.43;;;13.70;99.90;;;;;;5061823;28;20444;-43
2023/03/21 11:01:02;;;;;;;9.82;4.85;;;13.70;99.90;;;;;;5061461;28;20108;-44
2023/03/21 11:03:54;;;;;;;9.18;4.85;;;13.80;99.90;;;;;;5061964;28;20124;-44
2023/03/21 11:06:30;;;;;;;7.28;4.72;;;13.90;99.90;;;;;;5060698;28;20027;-43
2023/03/21 11:09:22;;;;;;;9.52;5.80;;;14.00;99.90;;;;;;5060871;28;20486;-43
2023/03/21 11:12:08;;;;;;;6.00;4.53;;;14.10;99.90;;;;;;5061620;28;20041;-44
2023/03/21 11:14:49;;;;;;;8.80;5.68;;;14.10;99.90;;;;;;5061990;28;20016;-43
2023/03/21 11:17:32;;;;;;;9.38;5.57;;;14.10;99.90;;;;;;5060076;28;20028;-43
2023/03/21 11:20:00;;;;;;;11.88;5.78;;;14.10;99.90;;;;;;5060427;28;20021;-43
2023/03/21 11:22:30;;;;;;;8.75;4.85;;;14.20;99.90;;;;;;5060002;28;20021;-44
2023/03/21 11:25:00;;;;;;;7.75;5.28;;;14.10;99.90;;;;;;5057354;28;20048;-43
2023/03/21 11:27:28;;;;;;;7.78;4.93;;;14.20;99.90;;;;;;5060624;28;20036;-44
2023/03/21 11:29:56;;;;;;;8.32;5.18;;;14.10;99.90;;;;;;5061192;28;20036;-44
2023/03/21 11:32:32;;;;;;;6.75;4.75;;;14.20;99.90;;;;;;5060650;28;20052;-44
2023/03/21 11:35:16;;;;;;;9.70;4.53;;;14.20;99.90;;;;;;5057963;28;20059;-44
2023/03/21 11:37:49;;;;;;;6.93;4.40;;;14.30;99.90;;;;;;5061352;28;20152;-44
2023/03/21 11:40:27;;;;;;;8.85;4.72;;;14.30;99.90;;;;;;5061117;28;20496;-43
2023/03/21 11:43:02;;;;;;;7.47;4.38;;;14.30;99.90;;;;;;5062051;28;20121;-44
2023/03/21 11:45:30;;;;;;;5.97;3.92;;;14.40;99.90;;;;;;5059905;28;20031;-44
2023/03/21 11:48:04;;;;;;;6.85;4.57;;;14.40;99.90;;;;;;5061198;28;20055;-43
2023/03/21 11:50:34;;;;;;;7.93;5.20;;;14.50;99.90;;;;;;5052988;28;20376;-44
2023/03/21 11:53:18;;;;;;;9.27;5.45;;;14.50;99.90;;;;;;5060789;28;20044;-43
2023/03/21 11:56:02;;;;;;;8.32;5.15;;;14.60;99.90;;;;;;5055390;28;20078;-43
2023/03/21 11:59:06;;;;;;;8.23;4.97;;;14.60;99.90;;;;;;5060593;28;20067;-44
2023/03/21 12:01:56;;;;;;;6.60;4.40;;;14.70;99.90;;;;;;5053495;28;20033;-43
2023/03/21 12:04:41;;;;;;;5.47;4.13;;;14.70;99.90;;;;;;5060039;28;20886;-44
2023/03/21 12:07:09;;;;;;;8.38;4.38;;;14.70;99.90;;;;;;5059960;28;20058;-42
2023/03/21 12:09:57;;;;;;;6.80;4.05;;;14.70;99.90;;;;;;5060530;28;20523;-43
2023/03/21 12:12:39;;;;;;;7.28;3.33;;;14.70;99.90;;;;;;5059924;28;20037;-44
2023/03/21 12:15:23;;;;;;;5.53;3.78;;;14.70;99.90;;;;;;5056971;28;20028;-43
2023/03/21 12:18:05;;;;;;;7.18;4.07;;;14.70;99.90;;;;;;5061204;28;20742;-44
2023/03/21 12:20:43;;;;;;;8.07;4.30;;;14.80;99.90;;;;;;5060685;28;20085;-43
2023/03/21 12:23:27;;;;;;;8.05;4.57;;;14.80;99.90;;;;;;5059680;28;20106;-43
2023/03/21 12:26:01;;;;;;;5.47;3.42;;;14.80;99.90;;;;;;5060744;28;20021;-43
2023/03/21 12:28:39;;;;;;;6.60;3.35;;;14.80;99.90;;;;;;5060351;28;20206;-43
2023/03/21 12:31:11;;;;;;;6.45;3.30;;;14.80;99.90;;;;;;5059551;28;20063;-43
2023/03/21 12:33:55;;;;;;;6.43;3.05;;;14.70;99.90;;;;;;5059092;28;20469;-43
2023/03/21 12:36:35;;;;;;;7.50;3.70;;;14.70;99.90;;;;;;5059651;28;20127;-43
2023/03/21 12:39:12;;;;;;;6.80;3.88;;;14.70;99.90;;;;;;5059766;28;20040;-44
2023/03/21 12:41:43;;;;;;;8.45;4.07;;;14.70;99.90;;;;;;5059283;28;20037;-44
2023/03/21 12:44:15;;;;;;;6.18;3.67;;;14.60;99.90;;;;;;5058855;28;20038;-44
2023/03/21 12:46:47;;;;;;;10.70;4.55;;;14.70;99.90;;;;;;5060435;28;20999;-43
2023/03/21 12:49:27;;;;;;;8.57;3.90;;;14.70;99.90;;;;;;5058808;28;20071;-43
2023/03/21 12:52:00;;;;;;;8.73;4.13;;;14.70;99.90;;;;;;5059675;28;20064;-43
2023/03/21 12:54:36;;;;;;;6.70;3.90;;;14.80;99.90;;;;;;5058295;28;20048;-43
2023/03/21 12:57:22;;;;;;;7.47;4.18;;;14.80;99.90;;;;;;5058474;28;20024;-43
2023/03/21 13:00:36;;;;;;;6.53;4.40;;;14.90;99.90;;;;;;5054076;28;20025;-44